sensor_id;sensor_type;location;lat;lon;timestamp;P1;durP1;ratioP1;P2;durP2;ratioP2
6642;SDS011;3357;48.050;7.800;2022-08-19T00:00:29;15.73;;;13.23;;
6642;SDS011;3357;48.050;7.800;2022-08-19T00:02:56;13.37;;;11.90;;
6642;SDS011;3357;48.050;7.800;2022-08-19T00:05:21;14.87;;;11.03;;
6642;SDS011;3357;48.050;7.800;2022-08-19T00:07:47;10.60;;;9.20;;
6642;SDS011;3357;48.050;7.800;2022-08-19T00:10:14;10.80;;;9.70;;
6642;SDS011;3357;48.050;7.800;2022-08-19T00:12:40;12.77;;;10.30;;
6642;SDS011;3357;48.050;7.800;2022-08-19T00:15:07;10.83;;;9.70;;
6642;SDS011;3357;48.050;7.800;2022-08-19T00:20:08;13.10;;;10.53;;
6642;SDS011;3357;48.050;7.800;2022-08-19T00:22:35;14.20;;;10.70;;
6642;SDS011;3357;48.050;7.800;2022-08-19T00:25:01;13.77;;;10.10;;
6642;SDS011;3357;48.050;7.800;2022-08-19T00:27:26;11.50;;;9.67;;
6642;SDS011;3357;48.050;7.800;2022-08-19T00:29:52;10.90;;;9.90;;
6642;SDS011;3357;48.050;7.800;2022-08-19T00:32:17;10.07;;;9.07;;
6642;SDS011;3357;48.050;7.800;2022-08-19T00:34:42;11.83;;;8.90;;
6642;SDS011;3357;48.050;7.800;2022-08-19T00:37:08;10.47;;;9.47;;
6642;SDS011;3357;48.050;7.800;2022-08-19T00:39:33;10.63;;;9.20;;
6642;SDS011;3357;48.050;7.800;2022-08-19T00:42:05;12.57;;;9.23;;
6642;SDS011;3357;48.050;7.800;2022-08-19T00:44:32;10.73;;;8.80;;
6642;SDS011;3357;48.050;7.800;2022-08-19T00:46:58;9.73;;;8.83;;
6642;SDS011;3357;48.050;7.800;2022-08-19T00:49:35;10.57;;;9.53;;
6642;SDS011;3357;48.050;7.800;2022-08-19T00:52:03;9.73;;;8.83;;
6642;SDS011;3357;48.050;7.800;2022-08-19T00:54:30;9.87;;;8.67;;
6642;SDS011;3357;48.050;7.800;2022-08-19T00:56:56;11.00;;;9.60;;
6642;SDS011;3357;48.050;7.800;2022-08-19T00:59:22;13.00;;;10.57;;
6642;SDS011;3357;48.050;7.800;2022-08-19T01:01:48;10.10;;;9.10;;
6642;SDS011;3357;48.050;7.800;2022-08-19T01:04:14;10.87;;;9.83;;
6642;SDS011;3357;48.050;7.800;2022-08-19T01:06:39;10.70;;;9.60;;
6642;SDS011;3357;48.050;7.800;2022-08-19T01:09:09;10.50;;;9.50;;
6642;SDS011;3357;48.050;7.800;2022-08-19T01:11:36;14.03;;;8.87;;
6642;SDS011;3357;48.050;7.800;2022-08-19T01:14:04;11.10;;;10.00;;
6642;SDS011;3357;48.050;7.800;2022-08-19T01:16:30;10.67;;;9.67;;
6642;SDS011;3357;48.050;7.800;2022-08-19T01:18:56;13.53;;;9.20;;
6642;SDS011;3357;48.050;7.800;2022-08-19T01:23:51;11.90;;;10.10;;
6642;SDS011;3357;48.050;7.800;2022-08-19T01:26:19;14.50;;;10.93;;
6642;SDS011;3357;48.050;7.800;2022-08-19T01:28:47;16.97;;;10.90;;
6642;SDS011;3357;48.050;7.800;2022-08-19T01:31:15;13.27;;;11.67;;
6642;SDS011;3357;48.050;7.800;2022-08-19T01:33:43;15.97;;;13.20;;
6642;SDS011;3357;48.050;7.800;2022-08-19T01:36:13;16.23;;;12.90;;
6642;SDS011;3357;48.050;7.800;2022-08-19T01:38:50;21.00;;;13.97;;
6642;SDS011;3357;48.050;7.800;2022-08-19T01:41:16;18.53;;;14.37;;
6642;SDS011;3357;48.050;7.800;2022-08-19T01:43:43;18.70;;;15.53;;
6642;SDS011;3357;48.050;7.800;2022-08-19T01:46:09;17.33;;;14.70;;
6642;SDS011;3357;48.050;7.800;2022-08-19T01:48:37;16.80;;;14.73;;
6642;SDS011;3357;48.050;7.800;2022-08-19T01:51:04;16.00;;;13.73;;
6642;SDS011;3357;48.050;7.800;2022-08-19T01:55:58;15.40;;;13.60;;
6642;SDS011;3357;48.050;7.800;2022-08-19T01:58:25;16.77;;;13.40;;
6642;SDS011;3357;48.050;7.800;2022-08-19T02:00:55;17.43;;;13.77;;
6642;SDS011;3357;48.050;7.800;2022-08-19T02:03:21;15.37;;;13.40;;
6642;SDS011;3357;48.050;7.800;2022-08-19T02:05:58;15.73;;;13.67;;
6642;SDS011;3357;48.050;7.800;2022-08-19T02:08:25;15.40;;;12.73;;
6642;SDS011;3357;48.050;7.800;2022-08-19T02:10:51;16.73;;;13.80;;
6642;SDS011;3357;48.050;7.800;2022-08-19T02:13:16;18.37;;;13.90;;
6642;SDS011;3357;48.050;7.800;2022-08-19T02:15:42;17.40;;;14.60;;
6642;SDS011;3357;48.050;7.800;2022-08-19T02:18:07;18.27;;;13.17;;
6642;SDS011;3357;48.050;7.800;2022-08-19T02:20:33;15.57;;;13.87;;
6642;SDS011;3357;48.050;7.800;2022-08-19T02:22:59;15.50;;;13.63;;
6642;SDS011;3357;48.050;7.800;2022-08-19T02:25:26;17.50;;;14.13;;
6642;SDS011;3357;48.050;7.800;2022-08-19T02:27:51;15.73;;;12.93;;
6642;SDS011;3357;48.050;7.800;2022-08-19T02:30:16;15.77;;;14.07;;
6642;SDS011;3357;48.050;7.800;2022-08-19T02:32:42;14.73;;;13.07;;
6642;SDS011;3357;48.050;7.800;2022-08-19T02:35:08;15.13;;;12.17;;
6642;SDS011;3357;48.050;7.800;2022-08-19T02:37:34;17.23;;;13.37;;
6642;SDS011;3357;48.050;7.800;2022-08-19T02:40:18;17.40;;;13.00;;
6642;SDS011;3357;48.050;7.800;2022-08-19T02:42:44;15.30;;;12.50;;
6642;SDS011;3357;48.050;7.800;2022-08-19T02:45:10;14.80;;;12.93;;
6642;SDS011;3357;48.050;7.800;2022-08-19T02:47:37;18.40;;;12.87;;
6642;SDS011;3357;48.050;7.800;2022-08-19T02:50:02;15.37;;;11.87;;
6642;SDS011;3357;48.050;7.800;2022-08-19T02:52:31;14.33;;;11.17;;
6642;SDS011;3357;48.050;7.800;2022-08-19T02:54:57;15.83;;;10.60;;
6642;SDS011;3357;48.050;7.800;2022-08-19T02:57:23;13.90;;;11.40;;
6642;SDS011;3357;48.050;7.800;2022-08-19T02:59:49;16.20;;;11.80;;
6642;SDS011;3357;48.050;7.800;2022-08-19T03:02:14;13.20;;;11.80;;
6642;SDS011;3357;48.050;7.800;2022-08-19T03:04:40;16.03;;;12.23;;
6642;SDS011;3357;48.050;7.800;2022-08-19T03:07:06;13.20;;;11.57;;
6642;SDS011;3357;48.050;7.800;2022-08-19T03:12:02;12.63;;;11.33;;
6642;SDS011;3357;48.050;7.800;2022-08-19T03:14:30;17.70;;;12.13;;
6642;SDS011;3357;48.050;7.800;2022-08-19T03:16:56;12.47;;;11.17;;
6642;SDS011;3357;48.050;7.800;2022-08-19T03:19:22;11.73;;;10.53;;
6642;SDS011;3357;48.050;7.800;2022-08-19T03:21:51;15.83;;;11.23;;
6642;SDS011;3357;48.050;7.800;2022-08-19T03:24:17;10.70;;;9.70;;
6642;SDS011;3357;48.050;7.800;2022-08-19T03:26:47;13.70;;;12.30;;
6642;SDS011;3357;48.050;7.800;2022-08-19T03:29:14;15.00;;;12.30;;
6642;SDS011;3357;48.050;7.800;2022-08-19T03:31:42;12.13;;;10.93;;
6642;SDS011;3357;48.050;7.800;2022-08-19T03:34:08;14.73;;;11.73;;
6642;SDS011;3357;48.050;7.800;2022-08-19T03:36:36;16.30;;;12.50;;
6642;SDS011;3357;48.050;7.800;2022-08-19T03:39:03;14.70;;;12.57;;
6642;SDS011;3357;48.050;7.800;2022-08-19T03:41:30;14.70;;;13.20;;
6642;SDS011;3357;48.050;7.800;2022-08-19T03:43:57;22.00;;;13.47;;
6642;SDS011;3357;48.050;7.800;2022-08-19T03:46:24;17.20;;;13.33;;
6642;SDS011;3357;48.050;7.800;2022-08-19T03:48:52;14.97;;;12.60;;
6642;SDS011;3357;48.050;7.800;2022-08-19T03:51:27;18.03;;;12.53;;
6642;SDS011;3357;48.050;7.800;2022-08-19T03:53:58;16.70;;;13.47;;
6642;SDS011;3357;48.050;7.800;2022-08-19T03:56:25;15.77;;;13.17;;
6642;SDS011;3357;48.050;7.800;2022-08-19T03:58:52;15.57;;;12.53;;
6642;SDS011;3357;48.050;7.800;2022-08-19T04:01:19;15.57;;;13.93;;
6642;SDS011;3357;48.050;7.800;2022-08-19T04:03:46;16.33;;;13.80;;
6642;SDS011;3357;48.050;7.800;2022-08-19T04:06:17;16.00;;;14.23;;
6642;SDS011;3357;48.050;7.800;2022-08-19T04:08:46;18.40;;;14.40;;
6642;SDS011;3357;48.050;7.800;2022-08-19T04:11:14;16.87;;;13.63;;
6642;SDS011;3357;48.050;7.800;2022-08-19T04:13:41;18.43;;;13.27;;
6642;SDS011;3357;48.050;7.800;2022-08-19T04:16:08;15.40;;;13.10;;
6642;SDS011;3357;48.050;7.800;2022-08-19T04:18:34;15.40;;;13.30;;
6642;SDS011;3357;48.050;7.800;2022-08-19T04:21:00;17.60;;;14.40;;
6642;SDS011;3357;48.050;7.800;2022-08-19T04:23:26;22.20;;;15.13;;
6642;SDS011;3357;48.050;7.800;2022-08-19T04:25:53;17.57;;;15.10;;
6642;SDS011;3357;48.050;7.800;2022-08-19T04:28:18;21.70;;;13.83;;
6642;SDS011;3357;48.050;7.800;2022-08-19T04:30:45;23.13;;;14.87;;
6642;SDS011;3357;48.050;7.800;2022-08-19T04:33:17;15.63;;;13.13;;
6642;SDS011;3357;48.050;7.800;2022-08-19T04:35:45;19.03;;;14.50;;
6642;SDS011;3357;48.050;7.800;2022-08-19T04:38:14;19.10;;;12.80;;
6642;SDS011;3357;48.050;7.800;2022-08-19T04:40:44;18.50;;;16.03;;
6642;SDS011;3357;48.050;7.800;2022-08-19T04:43:30;21.77;;;14.60;;
6642;SDS011;3357;48.050;7.800;2022-08-19T04:45:55;15.27;;;13.37;;
6642;SDS011;3357;48.050;7.800;2022-08-19T04:48:21;19.10;;;14.83;;
6642;SDS011;3357;48.050;7.800;2022-08-19T04:50:57;20.60;;;16.57;;
6642;SDS011;3357;48.050;7.800;2022-08-19T04:53:25;17.57;;;15.47;;
6642;SDS011;3357;48.050;7.800;2022-08-19T04:55:51;16.40;;;14.70;;
6642;SDS011;3357;48.050;7.800;2022-08-19T04:58:17;20.00;;;15.57;;
6642;SDS011;3357;48.050;7.800;2022-08-19T05:00:43;18.90;;;15.53;;
6642;SDS011;3357;48.050;7.800;2022-08-19T05:03:08;23.50;;;16.80;;
6642;SDS011;3357;48.050;7.800;2022-08-19T05:05:37;20.97;;;15.87;;
6642;SDS011;3357;48.050;7.800;2022-08-19T05:08:03;19.47;;;15.90;;
6642;SDS011;3357;48.050;7.800;2022-08-19T05:10:29;20.23;;;15.80;;
6642;SDS011;3357;48.050;7.800;2022-08-19T05:12:55;18.90;;;15.60;;
6642;SDS011;3357;48.050;7.800;2022-08-19T05:15:20;18.87;;;14.77;;
6642;SDS011;3357;48.050;7.800;2022-08-19T05:17:46;18.57;;;14.90;;
6642;SDS011;3357;48.050;7.800;2022-08-19T05:20:31;18.90;;;14.27;;
6642;SDS011;3357;48.050;7.800;2022-08-19T05:23:15;16.50;;;14.73;;
6642;SDS011;3357;48.050;7.800;2022-08-19T05:25:40;18.83;;;14.87;;
6642;SDS011;3357;48.050;7.800;2022-08-19T05:28:06;21.47;;;16.27;;
6642;SDS011;3357;48.050;7.800;2022-08-19T05:30:31;18.53;;;14.00;;
6642;SDS011;3357;48.050;7.800;2022-08-19T05:32:57;22.17;;;15.57;;
6642;SDS011;3357;48.050;7.800;2022-08-19T05:35:22;18.10;;;14.77;;
6642;SDS011;3357;48.050;7.800;2022-08-19T05:37:55;25.20;;;15.63;;
6642;SDS011;3357;48.050;7.800;2022-08-19T05:40:20;24.83;;;16.60;;
6642;SDS011;3357;48.050;7.800;2022-08-19T05:42:45;24.50;;;16.90;;
6642;SDS011;3357;48.050;7.800;2022-08-19T05:45:11;19.43;;;15.90;;
6642;SDS011;3357;48.050;7.800;2022-08-19T05:47:37;20.53;;;16.50;;
6642;SDS011;3357;48.050;7.800;2022-08-19T05:50:03;20.33;;;15.70;;
6642;SDS011;3357;48.050;7.800;2022-08-19T05:52:29;17.23;;;15.10;;
6642;SDS011;3357;48.050;7.800;2022-08-19T05:54:56;21.73;;;16.60;;
6642;SDS011;3357;48.050;7.800;2022-08-19T05:57:21;18.67;;;16.30;;
6642;SDS011;3357;48.050;7.800;2022-08-19T05:59:47;22.47;;;15.70;;
6642;SDS011;3357;48.050;7.800;2022-08-19T06:02:13;21.10;;;14.80;;
6642;SDS011;3357;48.050;7.800;2022-08-19T06:04:39;23.07;;;15.90;;
6642;SDS011;3357;48.050;7.800;2022-08-19T06:07:07;20.57;;;15.50;;
6642;SDS011;3357;48.050;7.800;2022-08-19T06:09:33;22.53;;;17.00;;
6642;SDS011;3357;48.050;7.800;2022-08-19T06:11:58;16.53;;;14.47;;
6642;SDS011;3357;48.050;7.800;2022-08-19T06:14:34;19.97;;;15.13;;
6642;SDS011;3357;48.050;7.800;2022-08-19T06:17:00;19.90;;;15.13;;
6642;SDS011;3357;48.050;7.800;2022-08-19T06:19:27;17.47;;;14.73;;
6642;SDS011;3357;48.050;7.800;2022-08-19T06:21:54;18.90;;;13.90;;
6642;SDS011;3357;48.050;7.800;2022-08-19T06:24:26;16.17;;;12.63;;
6642;SDS011;3357;48.050;7.800;2022-08-19T06:26:53;15.80;;;13.60;;
6642;SDS011;3357;48.050;7.800;2022-08-19T06:29:21;19.90;;;14.93;;
6642;SDS011;3357;48.050;7.800;2022-08-19T06:31:50;22.00;;;14.23;;
6642;SDS011;3357;48.050;7.800;2022-08-19T06:34:17;16.10;;;14.00;;
6642;SDS011;3357;48.050;7.800;2022-08-19T06:36:45;19.03;;;14.70;;
6642;SDS011;3357;48.050;7.800;2022-08-19T06:39:14;15.57;;;13.87;;
6642;SDS011;3357;48.050;7.800;2022-08-19T06:41:42;25.43;;;14.63;;
6642;SDS011;3357;48.050;7.800;2022-08-19T06:44:11;18.20;;;15.07;;
6642;SDS011;3357;48.050;7.800;2022-08-19T06:46:37;16.83;;;14.17;;
6642;SDS011;3357;48.050;7.800;2022-08-19T06:49:04;18.87;;;14.30;;
6642;SDS011;3357;48.050;7.800;2022-08-19T06:51:29;18.67;;;13.90;;
6642;SDS011;3357;48.050;7.800;2022-08-19T06:54:00;17.30;;;14.40;;
6642;SDS011;3357;48.050;7.800;2022-08-19T06:56:28;24.70;;;14.37;;
6642;SDS011;3357;48.050;7.800;2022-08-19T06:58:59;18.27;;;13.60;;
6642;SDS011;3357;48.050;7.800;2022-08-19T07:01:39;15.07;;;12.80;;
6642;SDS011;3357;48.050;7.800;2022-08-19T07:04:07;15.53;;;13.00;;
6642;SDS011;3357;48.050;7.800;2022-08-19T07:06:33;17.80;;;12.60;;
6642;SDS011;3357;48.050;7.800;2022-08-19T07:09:01;15.27;;;13.00;;
6642;SDS011;3357;48.050;7.800;2022-08-19T07:11:28;15.40;;;13.30;;
6642;SDS011;3357;48.050;7.800;2022-08-19T07:13:53;16.93;;;12.70;;
6642;SDS011;3357;48.050;7.800;2022-08-19T07:16:25;14.20;;;12.37;;
6642;SDS011;3357;48.050;7.800;2022-08-19T07:18:51;15.47;;;13.80;;
6642;SDS011;3357;48.050;7.800;2022-08-19T07:21:22;15.20;;;12.57;;
6642;SDS011;3357;48.050;7.800;2022-08-19T07:23:50;13.57;;;11.67;;
6642;SDS011;3357;48.050;7.800;2022-08-19T07:26:22;21.20;;;13.90;;
6642;SDS011;3357;48.050;7.800;2022-08-19T07:28:50;14.37;;;12.70;;
6642;SDS011;3357;48.050;7.800;2022-08-19T07:31:21;14.67;;;13.10;;
6642;SDS011;3357;48.050;7.800;2022-08-19T07:33:48;20.23;;;13.40;;
6642;SDS011;3357;48.050;7.800;2022-08-19T07:36:17;15.90;;;13.27;;
6642;SDS011;3357;48.050;7.800;2022-08-19T07:38:47;14.97;;;13.37;;
6642;SDS011;3357;48.050;7.800;2022-08-19T07:41:17;16.10;;;13.47;;
6642;SDS011;3357;48.050;7.800;2022-08-19T07:43:44;16.40;;;13.13;;
6642;SDS011;3357;48.050;7.800;2022-08-19T07:46:11;19.23;;;13.77;;
6642;SDS011;3357;48.050;7.800;2022-08-19T07:48:40;16.93;;;14.90;;
6642;SDS011;3357;48.050;7.800;2022-08-19T07:51:09;18.07;;;13.23;;
6642;SDS011;3357;48.050;7.800;2022-08-19T07:53:36;16.73;;;13.60;;
6642;SDS011;3357;48.050;7.800;2022-08-19T07:56:02;15.40;;;12.80;;
6642;SDS011;3357;48.050;7.800;2022-08-19T07:58:30;14.17;;;12.67;;
6642;SDS011;3357;48.050;7.800;2022-08-19T08:01:02;15.40;;;13.53;;
6642;SDS011;3357;48.050;7.800;2022-08-19T08:03:30;15.20;;;13.50;;
6642;SDS011;3357;48.050;7.800;2022-08-19T08:06:15;18.50;;;13.83;;
6642;SDS011;3357;48.050;7.800;2022-08-19T08:08:59;17.90;;;13.90;;
6642;SDS011;3357;48.050;7.800;2022-08-19T08:11:42;18.13;;;14.20;;
6642;SDS011;3357;48.050;7.800;2022-08-19T08:14:29;16.23;;;14.20;;
6642;SDS011;3357;48.050;7.800;2022-08-19T08:16:56;16.90;;;13.83;;
6642;SDS011;3357;48.050;7.800;2022-08-19T08:21:53;19.57;;;13.07;;
6642;SDS011;3357;48.050;7.800;2022-08-19T08:24:19;17.70;;;13.33;;
6642;SDS011;3357;48.050;7.800;2022-08-19T08:26:45;23.23;;;15.80;;
6642;SDS011;3357;48.050;7.800;2022-08-19T08:29:11;21.77;;;14.93;;
6642;SDS011;3357;48.050;7.800;2022-08-19T08:31:39;17.00;;;15.20;;
6642;SDS011;3357;48.050;7.800;2022-08-19T08:34:05;20.03;;;15.77;;
6642;SDS011;3357;48.050;7.800;2022-08-19T08:36:31;24.50;;;15.63;;
6642;SDS011;3357;48.050;7.800;2022-08-19T08:38:58;22.23;;;17.00;;
6642;SDS011;3357;48.050;7.800;2022-08-19T08:41:29;20.50;;;16.30;;
6642;SDS011;3357;48.050;7.800;2022-08-19T08:43:59;22.10;;;16.30;;
6642;SDS011;3357;48.050;7.800;2022-08-19T08:52:05;21.47;;;17.67;;
6642;SDS011;3357;48.050;7.800;2022-08-19T08:54:36;21.60;;;15.60;;
6642;SDS011;3357;48.050;7.800;2022-08-19T08:57:15;25.90;;;17.40;;
6642;SDS011;3357;48.050;7.800;2022-08-19T08:59:48;20.63;;;15.77;;
6642;SDS011;3357;48.050;7.800;2022-08-19T09:02:17;19.93;;;16.30;;
6642;SDS011;3357;48.050;7.800;2022-08-19T09:04:49;29.50;;;17.47;;
6642;SDS011;3357;48.050;7.800;2022-08-19T09:13:21;21.73;;;17.50;;
6642;SDS011;3357;48.050;7.800;2022-08-19T09:15:58;20.93;;;16.70;;
6642;SDS011;3357;48.050;7.800;2022-08-19T09:18:45;23.00;;;18.07;;
6642;SDS011;3357;48.050;7.800;2022-08-19T09:21:12;20.87;;;15.90;;
6642;SDS011;3357;48.050;7.800;2022-08-19T09:23:40;20.47;;;17.20;;
6642;SDS011;3357;48.050;7.800;2022-08-19T09:26:10;25.80;;;18.90;;
6642;SDS011;3357;48.050;7.800;2022-08-19T09:28:42;24.93;;;18.50;;
6642;SDS011;3357;48.050;7.800;2022-08-19T09:31:12;22.20;;;17.20;;
6642;SDS011;3357;48.050;7.800;2022-08-19T09:33:39;23.53;;;16.60;;
6642;SDS011;3357;48.050;7.800;2022-08-19T09:36:06;20.00;;;16.23;;
6642;SDS011;3357;48.050;7.800;2022-08-19T09:38:33;20.13;;;15.90;;
6642;SDS011;3357;48.050;7.800;2022-08-19T09:41:03;20.23;;;17.30;;
6642;SDS011;3357;48.050;7.800;2022-08-19T09:43:36;23.43;;;16.90;;
6642;SDS011;3357;48.050;7.800;2022-08-19T09:46:03;24.60;;;18.30;;
6642;SDS011;3357;48.050;7.800;2022-08-19T09:48:34;19.77;;;16.90;;
6642;SDS011;3357;48.050;7.800;2022-08-19T09:51:06;25.27;;;19.00;;
6642;SDS011;3357;48.050;7.800;2022-08-19T09:53:34;24.10;;;16.57;;
6642;SDS011;3357;48.050;7.800;2022-08-19T09:56:01;34.03;;;18.70;;
6642;SDS011;3357;48.050;7.800;2022-08-19T09:58:27;23.70;;;16.70;;
6642;SDS011;3357;48.050;7.800;2022-08-19T10:00:54;18.67;;;16.17;;
6642;SDS011;3357;48.050;7.800;2022-08-19T10:03:21;22.80;;;17.87;;
6642;SDS011;3357;48.050;7.800;2022-08-19T10:05:48;23.73;;;17.10;;
6642;SDS011;3357;48.050;7.800;2022-08-19T10:08:25;20.33;;;16.90;;
6642;SDS011;3357;48.050;7.800;2022-08-19T10:10:52;22.97;;;17.93;;
6642;SDS011;3357;48.050;7.800;2022-08-19T10:13:23;27.47;;;19.60;;
6642;SDS011;3357;48.050;7.800;2022-08-19T10:15:50;19.40;;;16.70;;
6642;SDS011;3357;48.050;7.800;2022-08-19T10:18:19;24.10;;;17.83;;
6642;SDS011;3357;48.050;7.800;2022-08-19T10:20:46;25.93;;;18.27;;
6642;SDS011;3357;48.050;7.800;2022-08-19T10:23:12;21.27;;;17.83;;
6642;SDS011;3357;48.050;7.800;2022-08-19T10:25:38;24.20;;;19.17;;
6642;SDS011;3357;48.050;7.800;2022-08-19T10:28:04;24.93;;;19.27;;
6642;SDS011;3357;48.050;7.800;2022-08-19T10:30:38;25.47;;;19.20;;
6642;SDS011;3357;48.050;7.800;2022-08-19T10:33:04;23.00;;;18.50;;
6642;SDS011;3357;48.050;7.800;2022-08-19T10:35:30;22.70;;;18.63;;
6642;SDS011;3357;48.050;7.800;2022-08-19T10:38:04;23.90;;;19.57;;
6642;SDS011;3357;48.050;7.800;2022-08-19T10:40:30;25.00;;;17.50;;
6642;SDS011;3357;48.050;7.800;2022-08-19T10:42:55;21.10;;;17.93;;
6642;SDS011;3357;48.050;7.800;2022-08-19T10:45:21;25.23;;;19.40;;
6642;SDS011;3357;48.050;7.800;2022-08-19T10:47:49;26.93;;;20.37;;
6642;SDS011;3357;48.050;7.800;2022-08-19T10:50:15;25.93;;;19.43;;
6642;SDS011;3357;48.050;7.800;2022-08-19T10:53:02;21.30;;;17.90;;
6642;SDS011;3357;48.050;7.800;2022-08-19T10:55:28;25.17;;;19.57;;
6642;SDS011;3357;48.050;7.800;2022-08-19T10:58:13;25.03;;;19.03;;
6642;SDS011;3357;48.050;7.800;2022-08-19T11:00:42;24.67;;;18.57;;
6642;SDS011;3357;48.050;7.800;2022-08-19T11:03:08;21.97;;;17.40;;
6642;SDS011;3357;48.050;7.800;2022-08-19T11:05:34;23.67;;;17.97;;
6642;SDS011;3357;48.050;7.800;2022-08-19T11:08:02;25.43;;;19.63;;
6642;SDS011;3357;48.050;7.800;2022-08-19T11:10:28;24.20;;;18.10;;
6642;SDS011;3357;48.050;7.800;2022-08-19T11:12:53;23.77;;;18.20;;
6642;SDS011;3357;48.050;7.800;2022-08-19T11:15:19;24.13;;;18.67;;
6642;SDS011;3357;48.050;7.800;2022-08-19T11:17:44;20.70;;;17.87;;
6642;SDS011;3357;48.050;7.800;2022-08-19T11:20:14;26.10;;;18.40;;
6642;SDS011;3357;48.050;7.800;2022-08-19T11:22:40;26.30;;;18.63;;
6642;SDS011;3357;48.050;7.800;2022-08-19T11:25:06;26.23;;;18.80;;
6642;SDS011;3357;48.050;7.800;2022-08-19T11:27:32;25.97;;;17.93;;
6642;SDS011;3357;48.050;7.800;2022-08-19T11:30:05;24.77;;;18.13;;
6642;SDS011;3357;48.050;7.800;2022-08-19T11:32:32;21.73;;;17.73;;
6642;SDS011;3357;48.050;7.800;2022-08-19T11:35:00;24.63;;;18.97;;
6642;SDS011;3357;48.050;7.800;2022-08-19T11:37:26;27.90;;;20.43;;
6642;SDS011;3357;48.050;7.800;2022-08-19T11:39:51;35.87;;;21.60;;
6642;SDS011;3357;48.050;7.800;2022-08-19T11:42:17;25.03;;;20.70;;
6642;SDS011;3357;48.050;7.800;2022-08-19T11:45:02;25.20;;;18.47;;
6642;SDS011;3357;48.050;7.800;2022-08-19T11:47:30;26.53;;;18.37;;
6642;SDS011;3357;48.050;7.800;2022-08-19T11:49:56;26.50;;;19.40;;
6642;SDS011;3357;48.050;7.800;2022-08-19T11:52:22;24.27;;;19.47;;
6642;SDS011;3357;48.050;7.800;2022-08-19T11:54:47;26.50;;;19.77;;
6642;SDS011;3357;48.050;7.800;2022-08-19T11:57:13;26.77;;;19.20;;
6642;SDS011;3357;48.050;7.800;2022-08-19T11:59:47;25.13;;;20.07;;
6642;SDS011;3357;48.050;7.800;2022-08-19T12:02:13;29.60;;;20.13;;
6642;SDS011;3357;48.050;7.800;2022-08-19T12:04:40;35.00;;;21.70;;
6642;SDS011;3357;48.050;7.800;2022-08-19T12:07:06;24.83;;;18.73;;
6642;SDS011;3357;48.050;7.800;2022-08-19T12:12:00;26.40;;;19.27;;
6642;SDS011;3357;48.050;7.800;2022-08-19T12:14:30;23.20;;;18.00;;
6642;SDS011;3357;48.050;7.800;2022-08-19T12:16:57;20.20;;;16.50;;
6642;SDS011;3357;48.050;7.800;2022-08-19T12:19:23;28.63;;;18.23;;
6642;SDS011;3357;48.050;7.800;2022-08-19T12:24:25;26.63;;;19.70;;
6642;SDS011;3357;48.050;7.800;2022-08-19T12:26:51;26.23;;;19.40;;
6642;SDS011;3357;48.050;7.800;2022-08-19T12:29:16;20.87;;;17.03;;
6642;SDS011;3357;48.050;7.800;2022-08-19T12:31:43;25.40;;;16.40;;
6642;SDS011;3357;48.050;7.800;2022-08-19T12:34:08;27.63;;;17.87;;
6642;SDS011;3357;48.050;7.800;2022-08-19T12:36:34;21.17;;;15.80;;
6642;SDS011;3357;48.050;7.800;2022-08-19T12:39:00;21.63;;;16.73;;
6642;SDS011;3357;48.050;7.800;2022-08-19T12:41:26;21.23;;;15.80;;
6642;SDS011;3357;48.050;7.800;2022-08-19T12:43:51;22.70;;;17.30;;
6642;SDS011;3357;48.050;7.800;2022-08-19T12:46:17;20.80;;;16.40;;
6642;SDS011;3357;48.050;7.800;2022-08-19T12:48:43;19.77;;;15.77;;
6642;SDS011;3357;48.050;7.800;2022-08-19T12:51:14;19.27;;;16.17;;
6642;SDS011;3357;48.050;7.800;2022-08-19T12:53:46;21.07;;;16.20;;
6642;SDS011;3357;48.050;7.800;2022-08-19T12:56:12;19.73;;;15.80;;
6642;SDS011;3357;48.050;7.800;2022-08-19T12:58:41;17.30;;;15.17;;
6642;SDS011;3357;48.050;7.800;2022-08-19T13:01:08;19.40;;;14.67;;
6642;SDS011;3357;48.050;7.800;2022-08-19T13:03:41;17.73;;;14.07;;
6642;SDS011;3357;48.050;7.800;2022-08-19T13:06:10;19.53;;;15.43;;
6642;SDS011;3357;48.050;7.800;2022-08-19T13:08:35;20.13;;;14.13;;
6642;SDS011;3357;48.050;7.800;2022-08-19T13:11:08;17.70;;;14.50;;
6642;SDS011;3357;48.050;7.800;2022-08-19T13:13:35;14.57;;;12.87;;
6642;SDS011;3357;48.050;7.800;2022-08-19T13:16:01;19.17;;;14.33;;
6642;SDS011;3357;48.050;7.800;2022-08-19T13:18:29;15.47;;;13.87;;
6642;SDS011;3357;48.050;7.800;2022-08-19T13:20:54;14.60;;;13.13;;
6642;SDS011;3357;48.050;7.800;2022-08-19T13:23:19;15.30;;;12.87;;
6642;SDS011;3357;48.050;7.800;2022-08-19T13:25:53;15.23;;;13.20;;
6642;SDS011;3357;48.050;7.800;2022-08-19T13:28:20;13.63;;;12.23;;
6642;SDS011;3357;48.050;7.800;2022-08-19T13:30:46;14.50;;;12.97;;
6642;SDS011;3357;48.050;7.800;2022-08-19T13:33:30;16.00;;;14.40;;
6642;SDS011;3357;48.050;7.800;2022-08-19T13:35:58;13.17;;;11.87;;
6642;SDS011;3357;48.050;7.800;2022-08-19T13:38:25;14.00;;;12.03;;
6642;SDS011;3357;48.050;7.800;2022-08-19T13:40:51;13.00;;;11.80;;
6642;SDS011;3357;48.050;7.800;2022-08-19T13:43:18;14.60;;;11.17;;
6642;SDS011;3357;48.050;7.800;2022-08-19T13:45:45;13.37;;;10.93;;
6642;SDS011;3357;48.050;7.800;2022-08-19T13:48:10;13.07;;;11.30;;
6642;SDS011;3357;48.050;7.800;2022-08-19T13:50:41;11.57;;;10.37;;
6642;SDS011;3357;48.050;7.800;2022-08-19T13:53:11;13.33;;;10.97;;
6642;SDS011;3357;48.050;7.800;2022-08-19T13:55:38;10.40;;;9.40;;
6642;SDS011;3357;48.050;7.800;2022-08-19T13:58:04;10.70;;;9.70;;
6642;SDS011;3357;48.050;7.800;2022-08-19T14:00:33;12.90;;;9.90;;
6642;SDS011;3357;48.050;7.800;2022-08-19T14:03:00;10.33;;;9.43;;
6642;SDS011;3357;48.050;7.800;2022-08-19T14:07:56;10.67;;;9.57;;
6642;SDS011;3357;48.050;7.800;2022-08-19T14:10:22;11.03;;;10.03;;
6642;SDS011;3357;48.050;7.800;2022-08-19T14:12:53;11.83;;;10.10;;
6642;SDS011;3357;48.050;7.800;2022-08-19T14:15:20;11.13;;;10.03;;
6642;SDS011;3357;48.050;7.800;2022-08-19T14:17:47;11.27;;;10.23;;
6642;SDS011;3357;48.050;7.800;2022-08-19T14:20:13;12.27;;;10.20;;
6642;SDS011;3357;48.050;7.800;2022-08-19T14:22:40;12.17;;;9.07;;
6642;SDS011;3357;48.050;7.800;2022-08-19T14:25:10;12.53;;;9.40;;
6642;SDS011;3357;48.050;7.800;2022-08-19T14:27:40;11.37;;;10.33;;
6642;SDS011;3357;48.050;7.800;2022-08-19T14:30:08;11.90;;;10.70;;
6642;SDS011;3357;48.050;7.800;2022-08-19T14:32:39;14.40;;;11.13;;
6642;SDS011;3357;48.050;7.800;2022-08-19T14:35:05;18.07;;;11.60;;
6642;SDS011;3357;48.050;7.800;2022-08-19T14:37:32;13.60;;;11.67;;
6642;SDS011;3357;48.050;7.800;2022-08-19T14:39:58;15.67;;;11.67;;
6642;SDS011;3357;48.050;7.800;2022-08-19T14:42:23;12.93;;;11.20;;
6642;SDS011;3357;48.050;7.800;2022-08-19T14:44:49;13.90;;;12.40;;
6642;SDS011;3357;48.050;7.800;2022-08-19T14:47:14;13.50;;;12.20;;
6642;SDS011;3357;48.050;7.800;2022-08-19T14:49:39;14.40;;;12.90;;
6642;SDS011;3357;48.050;7.800;2022-08-19T14:52:05;14.53;;;13.03;;
6642;SDS011;3357;48.050;7.800;2022-08-19T14:54:30;13.70;;;12.40;;
6642;SDS011;3357;48.050;7.800;2022-08-19T14:56:57;14.50;;;13.00;;
6642;SDS011;3357;48.050;7.800;2022-08-19T14:59:24;19.27;;;15.30;;
6642;SDS011;3357;48.050;7.800;2022-08-19T15:02:05;15.00;;;13.40;;
6642;SDS011;3357;48.050;7.800;2022-08-19T15:04:31;16.73;;;13.30;;
6642;SDS011;3357;48.050;7.800;2022-08-19T15:07:00;17.53;;;14.43;;
6642;SDS011;3357;48.050;7.800;2022-08-19T15:09:29;15.17;;;13.77;;
6642;SDS011;3357;48.050;7.800;2022-08-19T15:11:54;19.90;;;15.57;;
6642;SDS011;3357;48.050;7.800;2022-08-19T15:14:20;18.57;;;14.80;;
6642;SDS011;3357;48.050;7.800;2022-08-19T15:16:45;17.43;;;15.60;;
6642;SDS011;3357;48.050;7.800;2022-08-19T15:19:11;21.20;;;15.93;;
6642;SDS011;3357;48.050;7.800;2022-08-19T15:21:36;16.07;;;14.37;;
6642;SDS011;3357;48.050;7.800;2022-08-19T15:24:03;19.57;;;15.07;;